sensor_id;sensor_type;location;lat;lon;timestamp;pressure;altitude;pressure_sealevel;temperature;humidity
51031;BME280;37058;41.442;23.240;2023-05-24T00:01:46;100258.59;;;15.59;85.00
51031;BME280;37058;41.442;23.240;2023-05-24T00:04:13;100249.22;;;15.65;84.31
51031;BME280;37058;41.442;23.240;2023-05-24T00:06:40;100251.09;;;15.70;83.80
51031;BME280;37058;41.442;23.240;2023-05-24T00:09:06;100252.00;;;15.60;82.34
51031;BME280;37058;41.442;23.240;2023-05-24T00:11:32;100244.34;;;15.52;82.23
51031;BME280;37058;41.442;23.240;2023-05-24T00:13:58;100243.00;;;15.49;82.28
51031;BME280;37058;41.442;23.240;2023-05-24T00:16:24;100245.00;;;15.44;82.81
51031;BME280;37058;41.442;23.240;2023-05-24T00:18:50;100252.72;;;15.42;82.90
51031;BME280;37058;41.442;23.240;2023-05-24T00:21:17;100251.63;;;15.43;83.49
51031;BME280;37058;41.442;23.240;2023-05-24T00:23:42;100248.38;;;15.35;83.68
51031;BME280;37058;41.442;23.240;2023-05-24T00:26:08;100251.22;;;15.25;84.38
51031;BME280;37058;41.442;23.240;2023-05-24T00:28:34;100250.94;;;15.22;84.57
51031;BME280;37058;41.442;23.240;2023-05-24T00:31:00;100251.75;;;15.27;84.45
51031;BME280;37058;41.442;23.240;2023-05-24T00:33:26;100257.53;;;15.26;84.34
51031;BME280;37058;41.442;23.240;2023-05-24T00:35:53;100253.44;;;15.23;84.51
51031;BME280;37058;41.442;23.240;2023-05-24T00:38:25;100251.06;;;15.06;85.81
51031;BME280;37058;41.442;23.240;2023-05-24T00:40:53;100251.69;;;14.98;85.80
51031;BME280;37058;41.442;23.240;2023-05-24T00:43:21;100250.94;;;14.87;86.39
51031;BME280;37058;41.442;23.240;2023-05-24T00:45:49;100255.13;;;14.80;86.62
51031;BME280;37058;41.442;23.240;2023-05-24T00:48:24;100254.03;;;14.76;86.80
51031;BME280;37058;41.442;23.240;2023-05-24T00:50:53;100250.75;;;14.73;86.98
51031;BME280;37058;41.442;23.240;2023-05-24T00:53:20;100254.59;;;14.72;87.15
51031;BME280;37058;41.442;23.240;2023-05-24T00:55:46;100257.94;;;14.69;86.56
51031;BME280;37058;41.442;23.240;2023-05-24T00:58:12;100257.16;;;14.64;87.34
51031;BME280;37058;41.442;23.240;2023-05-24T01:00:38;100253.03;;;14.61;87.86
51031;BME280;37058;41.442;23.240;2023-05-24T01:03:04;100253.31;;;14.60;88.76
51031;BME280;37058;41.442;23.240;2023-05-24T01:05:30;100255.81;;;14.56;88.90
51031;BME280;37058;41.442;23.240;2023-05-24T01:08:13;100254.72;;;14.47;87.40
51031;BME280;37058;41.442;23.240;2023-05-24T01:10:58;100260.00;;;14.38;87.85
51031;BME280;37058;41.442;23.240;2023-05-24T01:16:24;100254.50;;;14.38;87.29
51031;BME280;37058;41.442;23.240;2023-05-24T01:19:09;100247.03;;;14.44;87.06
51031;BME280;37058;41.442;23.240;2023-05-24T01:25:16;100246.78;;;14.40;87.21
51031;BME280;37058;41.442;23.240;2023-05-24T01:27:44;100245.66;;;14.46;86.79
51031;BME280;37058;41.442;23.240;2023-05-24T01:30:11;100253.59;;;14.48;87.15
51031;BME280;37058;41.442;23.240;2023-05-24T01:32:38;100246.44;;;14.52;86.85
51031;BME280;37058;41.442;23.240;2023-05-24T01:35:04;100244.81;;;14.51;86.76
51031;BME280;37058;41.442;23.240;2023-05-24T01:37:30;100240.94;;;14.52;86.92
51031;BME280;37058;41.442;23.240;2023-05-24T01:39:56;100242.34;;;14.55;86.63
51031;BME280;37058;41.442;23.240;2023-05-24T01:42:46;100246.44;;;14.57;86.61
51031;BME280;37058;41.442;23.240;2023-05-24T01:45:39;100242.63;;;14.53;85.12
51031;BME280;37058;41.442;23.240;2023-05-24T01:51:23;100241.56;;;14.39;84.44
51031;BME280;37058;41.442;23.240;2023-05-24T01:53:54;100241.84;;;14.37;84.66
51031;BME280;37058;41.442;23.240;2023-05-24T01:56:23;100247.34;;;14.37;84.46
51031;BME280;37058;41.442;23.240;2023-05-24T01:58:52;100241.84;;;14.37;84.68
51031;BME280;37058;41.442;23.240;2023-05-24T02:01:19;100242.16;;;14.36;85.42
51031;BME280;37058;41.442;23.240;2023-05-24T02:03:45;100247.63;;;14.41;84.71
51031;BME280;37058;41.442;23.240;2023-05-24T02:06:11;100248.72;;;14.40;84.56
51031;BME280;37058;41.442;23.240;2023-05-24T02:08:37;100247.66;;;14.36;85.33
51031;BME280;37058;41.442;23.240;2023-05-24T02:11:03;100252.63;;;14.28;86.34
51031;BME280;37058;41.442;23.240;2023-05-24T02:13:29;100248.78;;;14.24;87.51
51031;BME280;37058;41.442;23.240;2023-05-24T02:15:55;100257.84;;;14.20;87.20
51031;BME280;37058;41.442;23.240;2023-05-24T02:18:21;100252.94;;;14.17;87.62
51031;BME280;37058;41.442;23.240;2023-05-24T02:20:47;100252.38;;;14.15;87.85
51031;BME280;37058;41.442;23.240;2023-05-24T02:23:13;100254.06;;;14.05;86.74
51031;BME280;37058;41.442;23.240;2023-05-24T02:25:39;100244.50;;;13.93;86.92
51031;BME280;37058;41.442;23.240;2023-05-24T02:28:04;100257.94;;;13.89;86.71
51031;BME280;37058;41.442;23.240;2023-05-24T02:30:30;100263.75;;;13.82;87.52
51031;BME280;37058;41.442;23.240;2023-05-24T02:32:56;100264.56;;;13.88;87.24
51031;BME280;37058;41.442;23.240;2023-05-24T02:35:22;100265.63;;;13.92;86.45
51031;BME280;37058;41.442;23.240;2023-05-24T02:37:48;100262.63;;;13.88;86.49
51031;BME280;37058;41.442;23.240;2023-05-24T02:40:14;100270.34;;;13.76;87.16
51031;BME280;37058;41.442;23.240;2023-05-24T02:42:40;100274.47;;;13.69;86.58
51031;BME280;37058;41.442;23.240;2023-05-24T02:45:07;100271.16;;;13.66;86.26
51031;BME280;37058;41.442;23.240;2023-05-24T02:47:32;100274.19;;;13.70;86.26
51031;BME280;37058;41.442;23.240;2023-05-24T02:49:58;100280.22;;;13.72;86.18
51031;BME280;37058;41.442;23.240;2023-05-24T02:52:24;100275.59;;;13.62;87.12
51031;BME280;37058;41.442;23.240;2023-05-24T02:54:51;100269.25;;;13.57;86.88
51031;BME280;37058;41.442;23.240;2023-05-24T02:57:17;100260.78;;;13.43;88.78
51031;BME280;37058;41.442;23.240;2023-05-24T02:59:43;100262.16;;;13.46;88.52
51031;BME280;37058;41.442;23.240;2023-05-24T03:02:09;100267.06;;;13.49;87.77
51031;BME280;37058;41.442;23.240;2023-05-24T03:04:38;100264.63;;;13.52;87.67
51031;BME280;37058;41.442;23.240;2023-05-24T03:07:04;100262.41;;;13.44;86.71
51031;BME280;37058;41.442;23.240;2023-05-24T03:09:30;100270.63;;;13.49;86.30
51031;BME280;37058;41.442;23.240;2023-05-24T03:11:56;100275.03;;;13.50;85.92
51031;BME280;37058;41.442;23.240;2023-05-24T03:14:22;100275.31;;;13.54;85.27
51031;BME280;37058;41.442;23.240;2023-05-24T03:16:49;100279.41;;;13.56;84.38
51031;BME280;37058;41.442;23.240;2023-05-24T03:19:15;100274.47;;;13.58;83.76
51031;BME280;37058;41.442;23.240;2023-05-24T03:21:42;100276.13;;;13.59;83.69
51031;BME280;37058;41.442;23.240;2023-05-24T03:24:08;100281.06;;;13.62;84.18
51031;BME280;37058;41.442;23.240;2023-05-24T03:26:34;100277.78;;;13.60;84.75
51031;BME280;37058;41.442;23.240;2023-05-24T03:29:00;100280.53;;;13.55;85.12
51031;BME280;37058;41.442;23.240;2023-05-24T03:31:26;100280.53;;;13.35;84.20
51031;BME280;37058;41.442;23.240;2023-05-24T03:33:52;100281.59;;;13.18;86.95
51031;BME280;37058;41.442;23.240;2023-05-24T03:36:18;100284.06;;;13.10;87.67
51031;BME280;37058;41.442;23.240;2023-05-24T03:38:45;100286.78;;;13.05;86.96
51031;BME280;37058;41.442;23.240;2023-05-24T03:41:11;100287.34;;;13.07;86.47
51031;BME280;37058;41.442;23.240;2023-05-24T03:43:37;100286.50;;;13.16;85.73
51031;BME280;37058;41.442;23.240;2023-05-24T03:46:03;100293.09;;;13.26;85.05
51031;BME280;37058;41.442;23.240;2023-05-24T03:48:29;100298.63;;;13.36;84.53
51031;BME280;37058;41.442;23.240;2023-05-24T03:50:55;100292.06;;;13.42;84.08
51031;BME280;37058;41.442;23.240;2023-05-24T03:53:21;100301.38;;;13.41;84.24
51031;BME280;37058;41.442;23.240;2023-05-24T03:55:46;100291.50;;;13.45;84.39
51031;BME280;37058;41.442;23.240;2023-05-24T03:58:12;100292.31;;;13.51;84.37
51031;BME280;37058;41.442;23.240;2023-05-24T04:00:38;100288.47;;;13.57;84.48
51031;BME280;37058;41.442;23.240;2023-05-24T04:03:04;100298.63;;;13.61;84.72
51031;BME280;37058;41.442;23.240;2023-05-24T04:05:34;100303.03;;;13.68;85.01
51031;BME280;37058;41.442;23.240;2023-05-24T04:08:00;100299.16;;;13.63;85.64
51031;BME280;37058;41.442;23.240;2023-05-24T04:10:26;100302.16;;;13.72;85.61
51031;BME280;37058;41.442;23.240;2023-05-24T04:12:52;100310.97;;;13.74;85.31
51031;BME280;37058;41.442;23.240;2023-05-24T04:15:18;100304.91;;;13.77;85.06
51031;BME280;37058;41.442;23.240;2023-05-24T04:17:44;100306.28;;;13.80;84.97
51031;BME280;37058;41.442;23.240;2023-05-24T04:20:11;100317.25;;;13.95;85.08
51031;BME280;37058;41.442;23.240;2023-05-24T04:22:38;100316.09;;;14.12;84.62
51031;BME280;37058;41.442;23.240;2023-05-24T04:25:05;100315.50;;;14.25;84.60
51031;BME280;37058;41.442;23.240;2023-05-24T04:27:31;100325.63;;;14.40;84.24
51031;BME280;37058;41.442;23.240;2023-05-24T04:29:57;100314.91;;;14.54;84.11
51031;BME280;37058;41.442;23.240;2023-05-24T04:32:23;100318.94;;;14.71;83.71
51031;BME280;37058;41.442;23.240;2023-05-24T04:34:51;100323.00;;;14.84;83.28
51031;BME280;37058;41.442;23.240;2023-05-24T04:37:17;100324.00;;;14.99;82.80
51031;BME280;37058;41.442;23.240;2023-05-24T04:39:44;100317.63;;;15.08;82.61
51031;BME280;37058;41.442;23.240;2023-05-24T04:42:14;100328.28;;;15.20;82.24
51031;BME280;37058;41.442;23.240;2023-05-24T04:44:40;100320.53;;;15.27;82.42
51031;BME280;37058;41.442;23.240;2023-05-24T04:47:06;100321.50;;;15.42;82.23
51031;BME280;37058;41.442;23.240;2023-05-24T04:49:33;100316.41;;;15.59;81.25
51031;BME280;37058;41.442;23.240;2023-05-24T04:51:59;100314.13;;;15.71;80.79
51031;BME280;37058;41.442;23.240;2023-05-24T04:54:25;100319.06;;;15.74;80.74
51031;BME280;37058;41.442;23.240;2023-05-24T04:56:51;100320.78;;;15.65;82.19
51031;BME280;37058;41.442;23.240;2023-05-24T04:59:16;100321.59;;;15.66;82.13
51031;BME280;37058;41.442;23.240;2023-05-24T05:01:42;100323.53;;;15.65;81.92
51031;BME280;37058;41.442;23.240;2023-05-24T05:04:08;100328.69;;;15.77;82.07
51031;BME280;37058;41.442;23.240;2023-05-24T05:06:34;100327.28;;;15.79;82.48
51031;BME280;37058;41.442;23.240;2023-05-24T05:09:07;100336.22;;;15.95;81.76
51031;BME280;37058;41.442;23.240;2023-05-24T05:11:38;100332.41;;;16.15;81.04
51031;BME280;37058;41.442;23.240;2023-05-24T05:14:04;100328.63;;;16.35;79.72
51031;BME280;37058;41.442;23.240;2023-05-24T05:23:59;100335.03;;;16.79;78.83
51031;BME280;37058;41.442;23.240;2023-05-24T05:26:26;100332.28;;;16.79;78.16
51031;BME280;37058;41.442;23.240;2023-05-24T05:28:52;100333.31;;;16.83;77.78
51031;BME280;37058;41.442;23.240;2023-05-24T05:31:25;100323.69;;;16.80;77.65
51031;BME280;37058;41.442;23.240;2023-05-24T05:37:57;100336.94;;;16.78;79.88
51031;BME280;37058;41.442;23.240;2023-05-24T05:40:23;100327.78;;;16.83;79.22
51031;BME280;37058;41.442;23.240;2023-05-24T05:42:49;100327.66;;;16.93;79.55
51031;BME280;37058;41.442;23.240;2023-05-24T05:45:15;100330.19;;;17.27;78.90
51031;BME280;37058;41.442;23.240;2023-05-24T05:47:41;100343.25;;;17.73;76.68
51031;BME280;37058;41.442;23.240;2023-05-24T05:50:08;100340.19;;;18.08;74.93
51031;BME280;37058;41.442;23.240;2023-05-24T05:52:34;100341.09;;;19.36;70.15
51031;BME280;37058;41.442;23.240;2023-05-24T05:58:15;100335.16;;;19.88;65.83
51031;BME280;37058;41.442;23.240;2023-05-24T06:18:49;100334.31;;;19.20;68.66
51031;BME280;37058;41.442;23.240;2023-05-24T06:21:15;100333.94;;;18.99;68.92
51031;BME280;37058;41.442;23.240;2023-05-24T06:23:41;100335.06;;;18.98;69.29
51031;BME280;37058;41.442;23.240;2023-05-24T06:26:08;100333.16;;;18.84;69.15
51031;BME280;37058;41.442;23.240;2023-05-24T06:31:19;100334.16;;;18.89;69.55
51031;BME280;37058;41.442;23.240;2023-05-24T06:33:45;100332.59;;;18.96;69.71
51031;BME280;37058;41.442;23.240;2023-05-24T06:36:11;100330.97;;;19.09;69.68
51031;BME280;37058;41.442;23.240;2023-05-24T06:38:37;100333.66;;;19.23;69.63
51031;BME280;37058;41.442;23.240;2023-05-24T06:41:03;100326.44;;;19.36;70.09
51031;BME280;37058;41.442;23.240;2023-05-24T06:43:29;100322.28;;;19.47;69.75
51031;BME280;37058;41.442;23.240;2023-05-24T06:45:55;100322.75;;;19.63;68.63
51031;BME280;37058;41.442;23.240;2023-05-24T06:48:21;100322.31;;;19.69;67.88
51031;BME280;37058;41.442;23.240;2023-05-24T06:50:47;100313.25;;;19.78;68.06
51031;BME280;37058;41.442;23.240;2023-05-24T06:53:14;100311.97;;;19.84;67.81
51031;BME280;37058;41.442;23.240;2023-05-24T06:55:40;100308.25;;;19.88;67.75
51031;BME280;37058;41.442;23.240;2023-05-24T06:58:06;100311.56;;;19.99;67.65
51031;BME280;37058;41.442;23.240;2023-05-24T07:00:32;100299.69;;;20.07;67.36
51031;BME280;37058;41.442;23.240;2023-05-24T07:02:58;100301.06;;;20.19;65.51
51031;BME280;37058;41.442;23.240;2023-05-24T07:05:24;100304.88;;;20.31;64.65
51031;BME280;37058;41.442;23.240;2023-05-24T07:07:50;100297.72;;;20.48;64.28
51031;BME280;37058;41.442;23.240;2023-05-24T07:10:16;100302.69;;;20.60;64.46
51031;BME280;37058;41.442;23.240;2023-05-24T07:12:42;100298.97;;;20.73;63.71
51031;BME280;37058;41.442;23.240;2023-05-24T07:15:08;100290.47;;;20.78;62.68
51031;BME280;37058;41.442;23.240;2023-05-24T07:17:34;100292.75;;;20.76;60.91
51031;BME280;37058;41.442;23.240;2023-05-24T07:20:01;100287.72;;;20.87;61.84
51031;BME280;37058;41.442;23.240;2023-05-24T07:22:27;100284.78;;;21.00;63.33
51031;BME280;37058;41.442;23.240;2023-05-24T07:24:53;100284.66;;;21.14;63.15
51031;BME280;37058;41.442;23.240;2023-05-24T07:27:20;100287.25;;;21.28;62.61
51031;BME280;37058;41.442;23.240;2023-05-24T07:29:47;100283.31;;;21.38;60.76
51031;BME280;37058;41.442;23.240;2023-05-24T07:32:14;100284.94;;;21.56;59.24
51031;BME280;37058;41.442;23.240;2023-05-24T07:34:40;100280.50;;;21.64;58.09
51031;BME280;37058;41.442;23.240;2023-05-24T07:37:06;100281.81;;;21.75;58.54
51031;BME280;37058;41.442;23.240;2023-05-24T07:39:32;100286.16;;;21.85;57.89
51031;BME280;37058;41.442;23.240;2023-05-24T07:41:57;100279.59;;;21.98;57.21
51031;BME280;37058;41.442;23.240;2023-05-24T07:44:23;100281.03;;;22.04;55.59
51031;BME280;37058;41.442;23.240;2023-05-24T07:46:49;100283.50;;;22.06;56.53
51031;BME280;37058;41.442;23.240;2023-05-24T07:49:16;100278.63;;;21.94;57.33
51031;BME280;37058;41.442;23.240;2023-05-24T07:51:41;100265.59;;;21.86;57.82
51031;BME280;37058;41.442;23.240;2023-05-24T07:54:08;100270.16;;;21.91;58.08
51031;BME280;37058;41.442;23.240;2023-05-24T07:56:34;100266.50;;;21.99;57.60
51031;BME280;37058;41.442;23.240;2023-05-24T07:59:00;100265.22;;;21.88;59.31
51031;BME280;37058;41.442;23.240;2023-05-24T08:01:33;100257.06;;;21.91;59.59
51031;BME280;37058;41.442;23.240;2023-05-24T08:04:03;100257.56;;;21.93;59.58
51031;BME280;37058;41.442;23.240;2023-05-24T08:06:29;100248.22;;;21.98;59.43
51031;BME280;37058;41.442;23.240;2023-05-24T08:08:57;100260.47;;;21.97;58.46
51031;BME280;37058;41.442;23.240;2023-05-24T08:11:23;100257.00;;;22.08;59.88
51031;BME280;37058;41.442;23.240;2023-05-24T08:13:49;100255.28;;;22.25;58.41
51031;BME280;37058;41.442;23.240;2023-05-24T08:16:15;100253.63;;;22.33;59.03
51031;BME280;37058;41.442;23.240;2023-05-24T08:18:41;100251.75;;;22.45;57.89
51031;BME280;37058;41.442;23.240;2023-05-24T08:21:06;100251.03;;;22.57;56.90
51031;BME280;37058;41.442;23.240;2023-05-24T08:23:33;100247.84;;;22.67;53.24
51031;BME280;37058;41.442;23.240;2023-05-24T08:25:59;100246.75;;;22.81;53.94
51031;BME280;37058;41.442;23.240;2023-05-24T08:28:26;100240.78;;;22.91;52.71
51031;BME280;37058;41.442;23.240;2023-05-24T08:30:52;100244.63;;;23.07;51.51
51031;BME280;37058;41.442;23.240;2023-05-24T08:33:18;100240.25;;;23.19;52.51
51031;BME280;37058;41.442;23.240;2023-05-24T08:35:44;100244.00;;;23.23;51.30
51031;BME280;37058;41.442;23.240;2023-05-24T08:38:10;100247.69;;;23.27;50.22
51031;BME280;37058;41.442;23.240;2023-05-24T08:40:36;100240.56;;;23.38;51.77
51031;BME280;37058;41.442;23.240;2023-05-24T08:43:01;100236.66;;;23.51;52.49
51031;BME280;37058;41.442;23.240;2023-05-24T08:45:32;100226.69;;;23.63;50.83
51031;BME280;37058;41.442;23.240;2023-05-24T08:48:01;100235.75;;;23.72;50.63
51031;BME280;37058;41.442;23.240;2023-05-24T08:50:28;100235.16;;;23.66;49.11
51031;BME280;37058;41.442;23.240;2023-05-24T08:52:55;100227.19;;;23.77;48.80
51031;BME280;37058;41.442;23.240;2023-05-24T08:55:22;100232.91;;;23.81;49.07
51031;BME280;37058;41.442;23.240;2023-05-24T08:57:49;100231.19;;;23.88;49.63
51031;BME280;37058;41.442;23.240;2023-05-24T09:00:16;100231.88;;;23.97;48.05
51031;BME280;37058;41.442;23.240;2023-05-24T09:02:44;100233.75;;;24.06;47.74
51031;BME280;37058;41.442;23.240;2023-05-24T09:05:12;100231.19;;;24.13;47.39
51031;BME280;37058;41.442;23.240;2023-05-24T09:07:43;100229.56;;;24.24;47.69
51031;BME280;37058;41.442;23.240;2023-05-24T09:10:10;100224.69;;;24.33;47.52
51031;BME280;37058;41.442;23.240;2023-05-24T09:12:37;100225.59;;;24.37;46.88
51031;BME280;37058;41.442;23.240;2023-05-24T09:15:05;100224.31;;;24.35;47.08
51031;BME280;37058;41.442;23.240;2023-05-24T09:17:33;100235.59;;;24.38;46.97
51031;BME280;37058;41.442;23.240;2023-05-24T09:19:59;100229.59;;;24.49;46.98
51031;BME280;37058;41.442;23.240;2023-05-24T09:22:26;100225.13;;;24.60;45.60
51031;BME280;37058;41.442;23.240;2023-05-24T09:24:59;100221.03;;;24.70;46.08
51031;BME280;37058;41.442;23.240;2023-05-24T09:27:26;100214.16;;;24.79;45.60
51031;BME280;37058;41.442;23.240;2023-05-24T09:29:52;100214.47;;;24.90;45.81
51031;BME280;37058;41.442;23.240;2023-05-24T09:32:21;100214.31;;;24.99;45.63
51031;BME280;37058;41.442;23.240;2023-05-24T09:34:51;100212.09;;;25.04;44.73
51031;BME280;37058;41.442;23.240;2023-05-24T09:37:22;100212.63;;;25.10;44.78
51031;BME280;37058;41.442;23.240;2023-05-24T09:39:52;100207.28;;;25.17;45.17
51031;BME280;37058;41.442;23.240;2023-05-24T09:42:25;100199.06;;;25.24;44.52
51031;BME280;37058;41.442;23.240;2023-05-24T09:45:03;100202.53;;;25.34;44.55
51031;BME280;37058;41.442;23.240;2023-05-24T09:47:33;100201.13;;;25.40;44.34
51031;BME280;37058;41.442;23.240;2023-05-24T09:50:00;100198.75;;;25.42;43.42
51031;BME280;37058;41.442;23.240;2023-05-24T09:52:27;100196.75;;;25.26;42.31
51031;BME280;37058;41.442;23.240;2023-05-24T09:54:53;100198.66;;;25.22;42.85
51031;BME280;37058;41.442;23.240;2023-05-24T09:57:19;100196.13;;;25.17;41.92
51031;BME280;37058;41.442;23.240;2023-05-24T09:59:51;100193.31;;;25.17;42.89
51031;BME280;37058;41.442;23.240;2023-05-24T10:02:20;100186.91;;;25.17;43.49
51031;BME280;37058;41.442;23.240;2023-05-24T10:04:47;100183.28;;;25.16;42.93
51031;BME280;37058;41.442;23.240;2023-05-24T10:07:14;100181.63;;;25.27;42.18
51031;BME280;37058;41.442;23.240;2023-05-24T10:09:41;100181.09;;;25.38;42.60
51031;BME280;37058;41.442;23.240;2023-05-24T10:12:09;100173.34;;;25.47;40.86
51031;BME280;37058;41.442;23.240;2023-05-24T10:14:37;100177.59;;;25.57;40.32
51031;BME280;37058;41.442;23.240;2023-05-24T10:17:05;100173.38;;;25.63;40.50
51031;BME280;37058;41.442;23.240;2023-05-24T10:19:35;100173.97;;;25.72;40.77
51031;BME280;37058;41.442;23.240;2023-05-24T10:22:06;100180.56;;;25.80;39.93
51031;BME280;37058;41.442;23.240;2023-05-24T10:24:38;100174.38;;;25.86;39.53
51031;BME280;37058;41.442;23.240;2023-05-24T10:27:13;100169.69;;;25.90;41.01
51031;BME280;37058;41.442;23.240;2023-05-24T10:30:10;100172.56;;;25.78;41.18
51031;BME280;37058;41.442;23.240;2023-05-24T10:32:40;100166.56;;;25.80;40.93
51031;BME280;37058;41.442;23.240;2023-05-24T10:35:09;100164.44;;;25.89;40.57
51031;BME280;37058;41.442;23.240;2023-05-24T10:37:37;100151.72;;;25.91;39.49
51031;BME280;37058;41.442;23.240;2023-05-24T10:40:04;100155.31;;;25.92;39.96
51031;BME280;37058;41.442;23.240;2023-05-24T10:43:11;100151.38;;;25.93;37.61
51031;BME280;37058;41.442;23.240;2023-05-24T10:45:39;100144.13;;;25.92;37.73
51031;BME280;37058;41.442;23.240;2023-05-24T10:50:54;100145.91;;;26.00;37.39
51031;BME280;37058;41.442;23.240;2023-05-24T10:53:26;100145.09;;;26.00;37.82
51031;BME280;37058;41.442;23.240;2023-05-24T10:56:00;100134.72;;;26.00;38.36
51031;BME280;37058;41.442;23.240;2023-05-24T11:01:31;100129.97;;;26.01;37.21
51031;BME280;37058;41.442;23.240;2023-05-24T11:04:14;100127.06;;;25.97;36.14
51031;BME280;37058;41.442;23.240;2023-05-24T11:06:48;100123.53;;;26.00;36.23
51031;BME280;37058;41.442;23.240;2023-05-24T11:09:18;100120.56;;;26.09;36.86
51031;BME280;37058;41.442;23.240;2023-05-24T11:11:52;100123.13;;;26.17;37.25
51031;BME280;37058;41.442;23.240;2023-05-24T11:14:25;100120.03;;;26.23;35.32
51031;BME280;37058;41.442;23.240;2023-05-24T11:16:52;100119.47;;;26.33;35.43
51031;BME280;37058;41.442;23.240;2023-05-24T11:19:31;100116.09;;;26.43;34.95
51031;BME280;37058;41.442;23.240;2023-05-24T11:22:03;100124.94;;;26.45;33.83
51031;BME280;37058;41.442;23.240;2023-05-24T11:24:32;100119.53;;;26.52;33.96
51031;BME280;37058;41.442;23.240;2023-05-24T11:27:00;100111.63;;;26.58;33.20
51031;BME280;37058;41.442;23.240;2023-05-24T11:29:28;100108.19;;;26.65;33.62
51031;BME280;37058;41.442;23.240;2023-05-24T11:31:57;100101.94;;;26.71;32.24
51031;BME280;37058;41.442;23.240;2023-05-24T11:34:30;100110.44;;;26.78;30.58
51031;BME280;37058;41.442;23.240;2023-05-24T11:36:58;100103.00;;;26.86;29.22
51031;BME280;37058;41.442;23.240;2023-05-24T11:39:30;100106.31;;;26.92;30.35
51031;BME280;37058;41.442;23.240;2023-05-24T11:41:58;100102.28;;;26.89;29.80
51031;BME280;37058;41.442;23.240;2023-05-24T11:44:24;100103.94;;;26.94;29.49
51031;BME280;37058;41.442;23.240;2023-05-24T11:47:00;100097.22;;;26.98;28.74
51031;BME280;37058;41.442;23.240;2023-05-24T11:49:26;100099.41;;;27.09;30.42
51031;BME280;37058;41.442;23.240;2023-05-24T11:51:57;100093.94;;;27.16;29.87
51031;BME280;37058;41.442;23.240;2023-05-24T11:54:28;100086.13;;;27.25;31.11
51031;BME280;37058;41.442;23.240;2023-05-24T11:56:54;100081.84;;;27.31;30.98
51031;BME280;37058;41.442;23.240;2023-05-24T11:59:25;100069.50;;;27.36;30.85
51031;BME280;37058;41.442;23.240;2023-05-24T12:01:58;100068.75;;;27.39;30.82
51031;BME280;37058;41.442;23.240;2023-05-24T12:04:25;100075.09;;;27.36;31.20
51031;BME280;37058;41.442;23.240;2023-05-24T12:06:52;100077.66;;;27.21;30.44
51031;BME280;37058;41.442;23.240;2023-05-24T12:09:19;100071.69;;;27.23;30.48
51031;BME280;37058;41.442;23.240;2023-05-24T12:11:49;100073.72;;;27.26;30.62
51031;BME280;37058;41.442;23.240;2023-05-24T12:14:23;100068.13;;;27.26;30.87
51031;BME280;37058;41.442;23.240;2023-05-24T12:16:54;100066.22;;;27.30;32.13
51031;BME280;37058;41.442;23.240;2023-05-24T12:19:22;100054.19;;;27.30;31.57
51031;BME280;37058;41.442;23.240;2023-05-24T12:21:56;100053.91;;;27.38;31.96
51031;BME280;37058;41.442;23.240;2023-05-24T12:24:23;100051.16;;;27.42;31.95
51031;BME280;37058;41.442;23.240;2023-05-24T12:26:50;100048.75;;;27.40;32.09
51031;BME280;37058;41.442;23.240;2023-05-24T12:29:18;100045.47;;;27.35;32.18
51031;BME280;37058;41.442;23.240;2023-05-24T12:31:47;100044.94;;;27.29;31.05
51031;BME280;37058;41.442;23.240;2023-05-24T12:34:20;100047.75;;;27.29;31.49
51031;BME280;37058;41.442;23.240;2023-05-24T12:36:46;100042.91;;;27.26;31.43
51031;BME280;37058;41.442;23.240;2023-05-24T12:39:21;100036.59;;;27.33;34.14
51031;BME280;37058;41.442;23.240;2023-05-24T12:41:52;100045.03;;;27.33;34.28
51031;BME280;37058;41.442;23.240;2023-05-24T12:44:35;100039.66;;;27.24;34.19
51031;BME280;37058;41.442;23.240;2023-05-24T12:47:04;100038.34;;;27.18;35.20
51031;BME280;37058;41.442;23.240;2023-05-24T12:49:31;100041.88;;;27.15;34.47
51031;BME280;37058;41.442;23.240;2023-05-24T12:51:58;100043.00;;;27.10;34.21
51031;BME280;37058;41.442;23.240;2023-05-24T12:54:26;100048.22;;;27.12;35.19
51031;BME280;37058;41.442;23.240;2023-05-24T12:56:54;100029.78;;;27.11;34.25
51031;BME280;37058;41.442;23.240;2023-05-24T12:59:20;100041.88;;;27.15;35.34
51031;BME280;37058;41.442;23.240;2023-05-24T13:01:48;100043.59;;;27.19;35.06
51031;BME280;37058;41.442;23.240;2023-05-24T13:04:48;100050.13;;;27.27;33.39
51031;BME280;37058;41.442;23.240;2023-05-24T13:07:13;100047.69;;;27.26;33.99
51031;BME280;37058;41.442;23.240;2023-05-24T13:09:39;100045.22;;;27.20;33.86
51031;BME280;37058;41.442;23.240;2023-05-24T13:12:15;100048.28;;;27.15;34.66
51031;BME280;37058;41.442;23.240;2023-05-24T13:14:40;100045.25;;;27.24;33.67
51031;BME280;37058;41.442;23.240;2023-05-24T13:17:06;100043.22;;;27.21;32.32
51031;BME280;37058;41.442;23.240;2023-05-24T13:27:37;100024.03;;;27.50;32.83
51031;BME280;37058;41.442;23.240;2023-05-24T13:30:03;100026.53;;;27.55;29.88
51031;BME280;37058;41.442;23.240;2023-05-24T13:32:30;100021.78;;;27.59;30.54
51031;BME280;37058;41.442;23.240;2023-05-24T13:34:56;100023.41;;;27.60;28.98
51031;BME280;37058;41.442;23.240;2023-05-24T13:37:23;100035.44;;;27.60;28.91
51031;BME280;37058;41.442;23.240;2023-05-24T13:39:49;100021.81;;;27.62;28.21
51031;BME280;37058;41.442;23.240;2023-05-24T13:42:15;100014.69;;;27.65;28.67
51031;BME280;37058;41.442;23.240;2023-05-24T13:44:42;100015.59;;;27.73;28.04